Time;durP1;ratioP1;P1;durP2;ratioP2;P2;SDS_P1;SDS_P2;PMS_P1;PMS_P2;Temp;Humidity;BMP_temperature;BMP_pressure;BME280_temperature;BME280_humidity;BME280_pressure;Samples;Min_cycle;Max_cycle;Signal;HPM_P1;HPM_P2
2024/01/26 00:00:08;;;;;;;;;8.67;6.67;;;;;;;;5068984;28;8889;-75
2024/01/26 00:02:33;;;;;;;;;9.67;7.00;;;;;;;;5069233;28;8936;-75
2024/01/26 00:04:59;;;;;;;;;11.33;8.33;;;;;;;;5067420;28;8813;-75
2024/01/26 00:07:24;;;;;;;;;9.00;6.00;;;;;;;;5067710;28;8827;-75
2024/01/26 00:09:49;;;;;;;;;8.33;8.33;;;;;;;;5068948;28;10185;-75
2024/01/26 00:12:15;;;;;;;;;8.00;6.33;;;;;;;;5066960;28;8832;-74
2024/01/26 00:14:40;;;;;;;;;8.00;8.00;;;;;;;;5057936;28;8816;-74
2024/01/26 00:17:05;;;;;;;;;7.00;7.00;;;;;;;;5067812;28;8953;-75
2024/01/26 00:19:30;;;;;;;;;8.00;7.00;;;;;;;;5060251;28;8870;-74
2024/01/26 00:21:56;;;;;;;;;9.00;8.00;;;;;;;;5067298;28;8843;-74
2024/01/26 00:24:22;;;;;;;;;8.00;8.00;;;;;;;;5067485;28;8878;-75
2024/01/26 00:26:47;;;;;;;;;9.67;9.67;;;;;;;;5062430;28;10042;-75
2024/01/26 00:29:15;;;;;;;;;10.67;9.00;;;;;;;;5068022;28;8866;-75
2024/01/26 00:31:40;;;;;;;;;12.75;7.75;;;;;;;;5067713;28;8831;-73
2024/01/26 00:34:05;;;;;;;;;11.00;9.00;;;;;;;;5065657;28;9462;-74
2024/01/26 00:36:31;;;;;;;;;11.00;10.67;;;;;;;;5063918;28;8831;-75
2024/01/26 00:38:56;;;;;;;;;10.00;10.00;;;;;;;;5067692;28;9645;-75
2024/01/26 00:41:21;;;;;;;;;9.33;8.00;;;;;;;;5097169;28;8810;-73
2024/01/26 00:43:46;;;;;;;;;6.67;6.67;;;;;;;;5057803;28;8961;-74
2024/01/26 00:46:11;;;;;;;;;9.00;9.00;;;;;;;;5061041;28;8863;-74
2024/01/26 00:48:37;;;;;;;;;8.00;8.00;;;;;;;;5065540;28;8876;-75
2024/01/26 00:51:03;;;;;;;;;8.00;6.00;;;;;;;;5060169;28;8939;-75
2024/01/26 00:53:29;;;;;;;;;12.00;9.00;;;;;;;;5063055;28;8801;-75
2024/01/26 00:55:54;;;;;;;;;10.75;9.75;;;;;;;;5067700;28;8797;-74
2024/01/26 00:58:19;;;;;;;;;16.33;13.33;;;;;;;;5067991;28;8840;-75
2024/01/26 01:00:45;;;;;;;;;14.33;12.00;;;;;;;;5066620;28;8836;-74
2024/01/26 01:03:10;;;;;;;;;12.33;8.67;;;;;;;;5066850;28;8891;-75
2024/01/26 01:05:35;;;;;;;;;11.00;9.33;;;;;;;;5066840;28;9579;-74
2024/01/26 01:08:01;;;;;;;;;11.00;9.33;;;;;;;;5067572;28;8874;-74
2024/01/26 01:10:26;;;;;;;;;10.00;9.00;;;;;;;;5067837;28;8831;-74
2024/01/26 01:12:52;;;;;;;;;10.67;9.67;;;;;;;;5066202;28;8862;-73
2024/01/26 01:15:17;;;;;;;;;11.00;8.00;;;;;;;;5067611;28;8831;-74
2024/01/26 01:17:43;;;;;;;;;11.00;11.00;;;;;;;;5063943;28;8836;-74
2024/01/26 01:20:10;;;;;;;;;14.00;10.00;;;;;;;;5066408;28;8802;-74
2024/01/26 01:22:35;;;;;;;;;11.25;8.50;;;;;;;;5066289;28;8745;-74
2024/01/26 01:25:01;;;;;;;;;9.25;7.75;;;;;;;;5068585;28;8789;-73
2024/01/26 01:27:26;;;;;;;;;10.67;10.00;;;;;;;;5066029;28;8885;-74
2024/01/26 01:29:52;;;;;;;;;9.33;8.00;;;;;;;;5057436;28;8820;-75
2024/01/26 01:32:17;;;;;;;;;10.00;7.67;;;;;;;;5069172;28;8919;-73
2024/01/26 01:34:43;;;;;;;;;9.67;8.33;;;;;;;;5068238;28;8809;-74
2024/01/26 01:37:08;;;;;;;;;9.25;9.00;;;;;;;;5066951;28;8780;-74
2024/01/26 01:39:33;;;;;;;;;10.00;10.00;;;;;;;;5059247;28;8840;-75
2024/01/26 01:41:59;;;;;;;;;12.67;10.00;;;;;;;;5066228;28;8917;-74
2024/01/26 01:44:24;;;;;;;;;9.33;8.00;;;;;;;;5066720;28;8858;-76
2024/01/26 01:46:49;;;;;;;;;13.33;12.00;;;;;;;;5066647;28;8851;-75
2024/01/26 01:49:14;;;;;;;;;12.33;9.33;;;;;;;;5065997;28;8862;-75
2024/01/26 01:51:43;;;;;;;;;9.00;9.00;;;;;;;;5064744;28;8859;-73
2024/01/26 01:54:10;;;;;;;;;10.25;9.50;;;;;;;;5065767;28;9136;-74
2024/01/26 01:56:37;;;;;;;;;10.25;8.00;;;;;;;;5066290;28;8938;-74
2024/01/26 01:59:03;;;;;;;;;11.00;10.00;;;;;;;;5064819;28;8820;-74
2024/01/26 02:01:28;;;;;;;;;10.00;9.67;;;;;;;;5065734;28;8828;-74
2024/01/26 02:03:54;;;;;;;;;11.00;9.00;;;;;;;;5064679;28;8828;-73
2024/01/26 02:06:19;;;;;;;;;14.33;9.33;;;;;;;;5066744;28;8832;-74
2024/01/26 02:08:44;;;;;;;;;11.00;9.00;;;;;;;;5065214;28;8844;-74
2024/01/26 02:11:10;;;;;;;;;9.33;9.33;;;;;;;;5066940;28;8838;-75
2024/01/26 02:13:35;;;;;;;;;14.00;10.00;;;;;;;;5067124;28;8840;-73
2024/01/26 02:16:00;;;;;;;;;9.33;7.67;;;;;;;;5066846;28;8854;-74
2024/01/26 02:18:25;;;;;;;;;10.00;8.33;;;;;;;;5066793;28;8882;-73
2024/01/26 02:20:50;;;;;;;;;11.00;7.67;;;;;;;;5066486;28;8808;-74
2024/01/26 02:23:23;;;;;;;;;8.33;8.33;;;;;;;;5064904;28;8890;-73
2024/01/26 02:25:48;;;;;;;;;8.25;8.25;;;;;;;;5064736;28;8819;-73
2024/01/26 02:28:13;;;;;;;;;13.33;8.67;;;;;;;;5065546;28;8840;-74
2024/01/26 02:30:38;;;;;;;;;8.67;7.33;;;;;;;;5065122;28;8820;-73
2024/01/26 02:33:03;;;;;;;;;8.67;8.00;;;;;;;;5061591;28;9628;-73
2024/01/26 02:35:29;;;;;;;;;7.00;7.00;;;;;;;;5065714;28;8841;-73
2024/01/26 02:37:54;;;;;;;;;10.00;10.00;;;;;;;;5064012;28;8882;-74
2024/01/26 02:40:19;;;;;;;;;8.33;8.00;;;;;;;;5065791;28;8824;-74
2024/01/26 02:42:44;;;;;;;;;9.67;7.33;;;;;;;;5057580;28;8822;-75
2024/01/26 02:45:10;;;;;;;;;8.67;8.67;;;;;;;;5059609;28;9569;-74
2024/01/26 02:47:35;;;;;;;;;8.67;8.67;;;;;;;;5065630;28;8909;-75
2024/01/26 02:50:00;;;;;;;;;7.67;6.33;;;;;;;;5063915;28;8840;-74
2024/01/26 02:52:25;;;;;;;;;8.33;7.67;;;;;;;;5061979;28;8878;-75
2024/01/26 02:54:51;;;;;;;;;10.00;8.67;;;;;;;;5062272;28;8831;-73
2024/01/26 02:57:17;;;;;;;;;7.75;7.75;;;;;;;;5065525;28;8881;-74
2024/01/26 02:59:42;;;;;;;;;8.33;6.00;;;;;;;;5067803;28;8848;-75
2024/01/26 03:02:07;;;;;;;;;7.00;7.00;;;;;;;;5069169;28;8835;-74
2024/01/26 03:04:32;;;;;;;;;13.00;8.67;;;;;;;;5066802;28;8833;-74
2024/01/26 03:06:58;;;;;;;;;10.00;7.00;;;;;;;;5065434;28;8946;-75
2024/01/26 03:09:23;;;;;;;;;6.33;6.33;;;;;;;;5067441;28;9010;-74
2024/01/26 03:11:48;;;;;;;;;9.33;9.33;;;;;;;;5068093;28;8847;-73
2024/01/26 03:14:15;;;;;;;;;8.00;8.00;;;;;;;;5068560;28;8873;-74
2024/01/26 03:16:40;;;;;;;;;9.25;8.00;;;;;;;;5065491;28;8748;-74
2024/01/26 03:19:07;;;;;;;;;6.00;6.00;;;;;;;;5102223;27;8882;-73
2024/01/26 03:21:32;;;;;;;;;7.50;6.25;;;;;;;;5069657;28;8800;-74
2024/01/26 03:23:57;;;;;;;;;10.33;8.33;;;;;;;;5067326;28;8913;-73
2024/01/26 03:26:23;;;;;;;;;7.67;7.67;;;;;;;;5067943;28;8844;-73
2024/01/26 03:28:48;;;;;;;;;6.00;6.00;;;;;;;;5069945;28;8932;-73
2024/01/26 03:31:14;;;;;;;;;7.67;7.67;;;;;;;;5069143;28;8832;-75
2024/01/26 03:33:39;;;;;;;;;6.33;5.33;;;;;;;;5068561;28;8816;-73
2024/01/26 03:36:05;;;;;;;;;4.33;4.33;;;;;;;;5064217;28;8819;-73
2024/01/26 03:38:30;;;;;;;;;10.33;7.67;;;;;;;;5064024;28;8820;-75
2024/01/26 03:40:55;;;;;;;;;11.33;9.67;;;;;;;;5068899;28;8820;-74
2024/01/26 03:43:20;;;;;;;;;7.33;6.00;;;;;;;;5068266;28;8801;-74
2024/01/26 03:45:46;;;;;;;;;5.67;5.67;;;;;;;;5068386;28;8860;-74
2024/01/26 03:48:11;;;;;;;;;10.33;8.33;;;;;;;;5067525;28;8939;-73
2024/01/26 03:50:36;;;;;;;;;8.00;8.00;;;;;;;;5068505;28;9666;-74
2024/01/26 03:53:02;;;;;;;;;10.33;9.00;;;;;;;;5068636;28;8824;-74
2024/01/26 03:55:28;;;;;;;;;9.00;9.00;;;;;;;;5064722;28;10259;-74
2024/01/26 03:57:53;;;;;;;;;9.33;8.00;;;;;;;;5069052;28;8990;-75
2024/01/26 04:00:18;;;;;;;;;9.00;8.33;;;;;;;;5067758;28;8843;-74
2024/01/26 04:02:44;;;;;;;;;10.67;7.67;;;;;;;;5063967;28;8858;-74
2024/01/26 04:05:09;;;;;;;;;9.67;8.67;;;;;;;;5068260;28;8909;-74
2024/01/26 04:07:34;;;;;;;;;7.33;7.33;;;;;;;;5067538;28;8831;-75
2024/01/26 04:09:59;;;;;;;;;10.33;8.33;;;;;;;;5066739;28;8835;-74
2024/01/26 04:12:25;;;;;;;;;11.00;8.00;;;;;;;;5064301;28;8851;-75
2024/01/26 04:14:50;;;;;;;;;4.00;4.00;;;;;;;;5054668;28;8885;-74
2024/01/26 04:17:15;;;;;;;;;10.33;8.67;;;;;;;;5069191;28;8874;-73
2024/01/26 04:19:40;;;;;;;;;7.67;6.33;;;;;;;;5067826;28;8836;-74
2024/01/26 04:22:06;;;;;;;;;11.00;9.33;;;;;;;;5067691;28;8854;-74
2024/01/26 04:24:31;;;;;;;;;10.33;8.00;;;;;;;;5066112;28;8860;-74
2024/01/26 04:26:56;;;;;;;;;10.67;9.33;;;;;;;;5065839;28;8832;-73
2024/01/26 04:29:22;;;;;;;;;8.00;7.67;;;;;;;;5068657;28;8985;-75
2024/01/26 04:31:47;;;;;;;;;10.00;7.33;;;;;;;;5067169;28;8836;-75
2024/01/26 04:34:12;;;;;;;;;13.00;9.00;;;;;;;;5063948;28;8886;-75
2024/01/26 04:36:37;;;;;;;;;9.33;8.67;;;;;;;;5066179;28;9591;-74
2024/01/26 04:39:03;;;;;;;;;9.67;8.33;;;;;;;;5067975;28;8949;-74
2024/01/26 04:41:28;;;;;;;;;8.33;5.67;;;;;;;;5064998;28;9801;-74
2024/01/26 04:43:54;;;;;;;;;7.00;6.67;;;;;;;;5066795;28;8842;-74
2024/01/26 04:46:19;;;;;;;;;10.00;9.00;;;;;;;;5066513;28;8984;-74
2024/01/26 04:48:44;;;;;;;;;9.00;7.67;;;;;;;;5067282;28;8852;-75
2024/01/26 04:51:09;;;;;;;;;6.33;5.67;;;;;;;;5066697;28;8959;-74
2024/01/26 04:53:35;;;;;;;;;15.67;7.67;;;;;;;;5065690;28;8846;-74
2024/01/26 04:56:01;;;;;;;;;9.33;7.00;;;;;;;;5066248;28;8816;-74
2024/01/26 04:58:26;;;;;;;;;9.67;7.00;;;;;;;;5068128;28;8831;-74
2024/01/26 05:00:52;;;;;;;;;8.00;8.00;;;;;;;;5066203;28;8836;-75
2024/01/26 05:03:18;;;;;;;;;10.50;6.75;;;;;;;;5065590;28;8864;-75
2024/01/26 05:05:43;;;;;;;;;9.00;6.67;;;;;;;;5066110;28;8848;-74
2024/01/26 05:08:08;;;;;;;;;7.00;7.00;;;;;;;;5068445;28;8822;-75
2024/01/26 05:10:33;;;;;;;;;11.00;10.00;;;;;;;;5065142;28;8839;-76
2024/01/26 05:12:58;;;;;;;;;10.00;5.67;;;;;;;;5067762;28;8808;-75
2024/01/26 05:15:24;;;;;;;;;12.33;8.67;;;;;;;;5070295;28;8836;-74
2024/01/26 05:17:49;;;;;;;;;10.33;9.33;;;;;;;;5070820;28;8815;-74
2024/01/26 05:20:14;;;;;;;;;8.67;7.67;;;;;;;;5070213;28;8863;-75
2024/01/26 05:22:39;;;;;;;;;9.33;8.33;;;;;;;;5060117;28;8862;-75
2024/01/26 05:25:05;;;;;;;;;9.33;6.33;;;;;;;;5058315;28;8879;-74
2024/01/26 05:27:30;;;;;;;;;10.67;10.67;;;;;;;;5068372;28;8846;-74
2024/01/26 05:29:56;;;;;;;;;9.67;9.00;;;;;;;;5065617;28;8826;-75
2024/01/26 05:32:22;;;;;;;;;14.00;11.00;;;;;;;;5060400;28;8850;-74
2024/01/26 05:34:47;;;;;;;;;8.75;8.75;;;;;;;;5061952;28;8818;-74
2024/01/26 05:37:12;;;;;;;;;9.67;8.33;;;;;;;;5063086;28;8836;-75
2024/01/26 05:39:37;;;;;;;;;11.67;6.33;;;;;;;;5066626;28;8859;-75
2024/01/26 05:42:03;;;;;;;;;6.33;5.33;;;;;;;;5066746;28;8855;-76
2024/01/26 05:44:28;;;;;;;;;13.33;8.67;;;;;;;;5064183;28;8828;-73
2024/01/26 05:46:53;;;;;;;;;6.33;6.33;;;;;;;;5065080;28;8839;-73
2024/01/26 05:49:19;;;;;;;;;7.33;7.00;;;;;;;;5065309;28;8908;-74
2024/01/26 05:51:44;;;;;;;;;7.67;7.33;;;;;;;;5063335;28;8848;-76
2024/01/26 05:54:10;;;;;;;;;8.33;6.33;;;;;;;;5059576;28;8846;-75
2024/01/26 05:56:38;;;;;;;;;11.00;8.67;;;;;;;;5063867;28;8814;-79
2024/01/26 05:59:03;;;;;;;;;4.75;3.75;;;;;;;;5065588;28;9691;-78
2024/01/26 06:01:29;;;;;;;;;11.33;10.33;;;;;;;;5065726;28;8855;-73
2024/01/26 06:03:54;;;;;;;;;10.00;9.00;;;;;;;;5065343;28;8836;-75
2024/01/26 06:06:19;;;;;;;;;8.00;7.00;;;;;;;;5065716;28;8874;-75
2024/01/26 06:08:44;;;;;;;;;5.00;4.33;;;;;;;;5065223;28;8869;-75
2024/01/26 06:11:10;;;;;;;;;8.00;6.67;;;;;;;;5064183;28;9353;-77
2024/01/26 06:13:35;;;;;;;;;9.00;7.67;;;;;;;;5065519;28;8813;-79
2024/01/26 06:16:00;;;;;;;;;8.33;8.33;;;;;;;;5065403;28;8812;-73
2024/01/26 06:18:28;;;;;;;;;8.67;7.33;;;;;;;;5067009;28;8859;-83
2024/01/26 06:20:53;;;;;;;;;10.25;9.25;;;;;;;;5070235;28;8760;-78
2024/01/26 06:23:18;;;;;;;;;12.00;9.67;;;;;;;;5071503;28;8843;-80
2024/01/26 06:25:43;;;;;;;;;6.67;6.67;;;;;;;;5065158;28;9623;-77
2024/01/26 06:28:09;;;;;;;;;9.67;8.00;;;;;;;;5066138;28;8894;-77
2024/01/26 06:30:35;;;;;;;;;11.33;7.67;;;;;;;;5063371;28;8868;-71
2024/01/26 06:33:01;;;;;;;;;9.50;7.25;;;;;;;;5065942;28;9781;-72
2024/01/26 06:35:26;;;;;;;;;5.33;5.33;;;;;;;;5066193;28;8832;-74
2024/01/26 06:37:51;;;;;;;;;10.33;8.33;;;;;;;;5065912;28;8829;-73
2024/01/26 06:40:17;;;;;;;;;10.33;8.33;;;;;;;;5066678;28;8820;-77
2024/01/26 06:42:42;;;;;;;;;9.67;8.00;;;;;;;;5067091;28;8808;-78
2024/01/26 06:45:12;;;;;;;;;7.33;6.67;;;;;;;;5055167;28;8819;-79
2024/01/26 06:47:37;;;;;;;;;10.00;8.25;;;;;;;;5066643;28;8821;-78
2024/01/26 06:50:03;;;;;;;;;9.33;7.67;;;;;;;;5065736;28;8851;-72
2024/01/26 06:52:28;;;;;;;;;11.00;7.00;;;;;;;;5066809;28;8887;-73
2024/01/26 06:54:53;;;;;;;;;6.67;6.67;;;;;;;;5067121;28;8883;-73
2024/01/26 06:57:19;;;;;;;;;7.67;6.67;;;;;;;;5063510;28;8860;-73
2024/01/26 06:59:44;;;;;;;;;8.00;7.00;;;;;;;;5063467;28;8869;-72
2024/01/26 07:02:10;;;;;;;;;5.00;2.00;;;;;;;;5093804;28;8822;-73
2024/01/26 07:04:35;;;;;;;;;9.33;8.00;;;;;;;;5067716;28;8850;-73
2024/01/26 07:07:00;;;;;;;;;8.00;5.67;;;;;;;;5067137;28;8840;-74
2024/01/26 07:09:25;;;;;;;;;3.00;3.00;;;;;;;;5067228;28;8802;-73
2024/01/26 07:11:50;;;;;;;;;8.67;6.00;;;;;;;;5056169;28;8962;-73
2024/01/26 07:14:15;;;;;;;;;7.00;6.33;;;;;;;;5066677;28;8814;-74
2024/01/26 07:16:41;;;;;;;;;7.00;7.00;;;;;;;;5066033;28;9034;-73
2024/01/26 07:19:06;;;;;;;;;12.33;9.00;;;;;;;;5066410;28;8840;-73
2024/01/26 07:21:32;;;;;;;;;8.33;7.67;;;;;;;;5063937;28;9411;-73
2024/01/26 07:23:58;;;;;;;;;8.25;6.25;;;;;;;;5065814;28;8792;-74
2024/01/26 07:26:24;;;;;;;;;8.50;8.25;;;;;;;;5066004;28;8946;-73
2024/01/26 07:28:50;;;;;;;;;6.00;6.00;;;;;;;;5066208;28;8828;-73
2024/01/26 07:31:15;;;;;;;;;8.50;7.25;;;;;;;;5065010;28;9636;-72
2024/01/26 07:33:41;;;;;;;;;10.00;5.67;;;;;;;;5065937;28;8903;-74
2024/01/26 07:36:06;;;;;;;;;6.67;5.00;;;;;;;;5065189;28;8844;-72
2024/01/26 07:38:31;;;;;;;;;9.33;6.67;;;;;;;;5064668;28;9546;-75
2024/01/26 07:41:00;;;;;;;;;8.33;7.33;;;;;;;;5066032;28;8792;-75
2024/01/26 07:43:25;;;;;;;;;5.00;5.00;;;;;;;;5066261;28;8824;-73
2024/01/26 07:45:50;;;;;;;;;11.67;5.67;;;;;;;;5065915;28;8851;-71
2024/01/26 07:48:15;;;;;;;;;8.00;5.00;;;;;;;;5070731;28;8839;-71
2024/01/26 07:50:41;;;;;;;;;4.00;4.00;;;;;;;;5067832;28;8816;-71
2024/01/26 07:53:07;;;;;;;;;9.00;6.67;;;;;;;;5065238;28;8816;-72
2024/01/26 07:55:32;;;;;;;;;5.00;4.33;;;;;;;;5058240;28;8835;-72
2024/01/26 07:57:57;;;;;;;;;6.67;6.67;;;;;;;;5060661;28;8808;-72
2024/01/26 08:00:23;;;;;;;;;6.33;5.67;;;;;;;;5068812;28;8820;-72
2024/01/26 08:02:48;;;;;;;;;5.00;4.00;;;;;;;;5070076;28;8832;-73
2024/01/26 08:05:13;;;;;;;;;5.00;4.00;;;;;;;;5068840;28;8856;-73
2024/01/26 08:07:38;;;;;;;;;9.33;6.33;;;;;;;;5101931;28;8828;-72
2024/01/26 08:10:04;;;;;;;;;7.00;6.00;;;;;;;;5069621;28;8915;-80
2024/01/26 08:12:29;;;;;;;;;6.33;6.00;;;;;;;;5069248;28;8838;-77
2024/01/26 08:14:55;;;;;;;;;4.00;2.67;;;;;;;;5070581;28;8932;-79
2024/01/26 08:17:21;;;;;;;;;2.67;2.67;;;;;;;;5069096;28;8821;-80
2024/01/26 08:19:47;;;;;;;;;5.00;4.00;;;;;;;;5070336;28;8879;-80
2024/01/26 08:22:12;;;;;;;;;3.25;3.00;;;;;;;;5072797;28;8815;-80
2024/01/26 08:24:38;;;;;;;;;3.00;3.00;;;;;;;;5070356;28;8844;-79
2024/01/26 08:27:03;;;;;;;;;2.67;2.67;;;;;;;;5068117;28;27891;-80
2024/01/26 08:29:28;;;;;;;;;4.00;4.00;;;;;;;;5049005;28;28534;-79
2024/01/26 08:31:54;;;;;;;;;2.67;2.67;;;;;;;;5050943;28;28432;-79
2024/01/26 08:34:19;;;;;;;;;4.67;4.00;;;;;;;;5050665;28;28490;-78
2024/01/26 08:36:44;;;;;;;;;5.00;2.00;;;;;;;;5048457;28;28813;-80
2024/01/26 08:39:12;;;;;;;;;3.67;2.33;;;;;;;;5044804;28;28643;-79
2024/01/26 08:41:38;;;;;;;;;4.00;3.33;;;;;;;;5043169;28;28527;-80
2024/01/26 08:44:03;;;;;;;;;6.00;2.67;;;;;;;;5048114;28;29542;-81
2024/01/26 08:46:29;;;;;;;;;5.00;3.67;;;;;;;;5048626;28;28595;-80
2024/01/26 08:48:54;;;;;;;;;3.67;2.00;;;;;;;;5047185;28;28154;-81
2024/01/26 08:51:20;;;;;;;;;2.33;2.33;;;;;;;;5048621;28;28452;-81
2024/01/26 08:53:45;;;;;;;;;2.33;1.67;;;;;;;;5048374;28;28505;-81
2024/01/26 08:56:14;;;;;;;;;4.00;3.00;;;;;;;;5051311;28;29059;-80
2024/01/26 08:58:40;;;;;;;;;5.67;4.00;;;;;;;;5048985;28;28517;-78
2024/01/26 09:01:05;;;;;;;;;3.00;3.00;;;;;;;;5047283;28;28553;-80
2024/01/26 09:03:32;;;;;;;;;6.67;3.00;;;;;;;;5040419;28;29323;-81
2024/01/26 09:05:57;;;;;;;;;2.00;2.00;;;;;;;;5046785;28;28643;-79
2024/01/26 09:08:23;;;;;;;;;4.00;4.00;;;;;;;;5046463;28;28491;-80
2024/01/26 09:10:48;;;;;;;;;3.00;3.00;;;;;;;;5052183;28;28468;-80
2024/01/26 09:13:13;;;;;;;;;4.00;4.00;;;;;;;;5050508;28;28495;-79
2024/01/26 09:15:39;;;;;;;;;3.00;3.00;;;;;;;;5052068;28;28359;-80
2024/01/26 09:18:04;;;;;;;;;7.67;4.67;;;;;;;;5048650;28;28911;-81
2024/01/26 09:20:29;;;;;;;;;3.33;3.33;;;;;;;;5049156;28;28530;-80
2024/01/26 09:22:55;;;;;;;;;2.00;2.00;;;;;;;;5048875;28;28732;-79
2024/01/26 09:25:20;;;;;;;;;5.33;3.00;;;;;;;;5047402;28;30449;-80
2024/01/26 09:27:45;;;;;;;;;4.00;4.00;;;;;;;;5047167;28;28797;-80
2024/01/26 09:30:11;;;;;;;;;4.00;4.00;;;;;;;;5048666;28;28466;-81
2024/01/26 09:32:39;;;;;;;;;4.00;3.00;;;;;;;;5046765;28;30405;-80
2024/01/26 09:35:04;;;;;;;;;3.00;3.00;;;;;;;;5046689;28;30093;-80
2024/01/26 09:37:30;;;;;;;;;3.00;3.00;;;;;;;;5048902;28;29508;-79
2024/01/26 09:39:55;;;;;;;;;2.00;2.00;;;;;;;;5043525;28;28193;-80
2024/01/26 09:42:22;;;;;;;;;4.00;2.00;;;;;;;;5052405;28;28340;-82
2024/01/26 09:44:48;;;;;;;;;2.00;1.00;;;;;;;;5044859;28;28953;-79
2024/01/26 09:47:14;;;;;;;;;0.33;0.33;;;;;;;;5051965;28;28450;-80
2024/01/26 09:49:46;;;;;;;;;3.33;3.33;;;;;;;;5041660;28;28856;-81
2024/01/26 09:52:12;;;;;;;;;4.67;4.00;;;;;;;;5041291;28;29665;-80
2024/01/26 09:54:40;;;;;;;;;0.33;0.33;;;;;;;;5049937;28;29334;-79
2024/01/26 09:57:08;;;;;;;;;1.33;1.33;;;;;;;;5051412;28;28918;-80
2024/01/26 09:59:33;;;;;;;;;1.33;0.00;;;;;;;;5053227;28;28909;-77
2024/01/26 10:02:00;;;;;;;;;0.33;0.33;;;;;;;;5054985;28;28842;-81
2024/01/26 10:04:26;;;;;;;;;1.50;0.25;;;;;;;;5054332;28;28470;-79
2024/01/26 10:06:51;;;;;;;;;0.67;0.00;;;;;;;;5045356;28;28411;-73
2024/01/26 10:09:17;;;;;;;;;0.00;0.00;;;;;;;;5050036;28;28504;-74
2024/01/26 10:11:42;;;;;;;;;3.67;0.00;;;;;;;;5053622;28;28644;-75
2024/01/26 10:14:08;;;;;;;;;1.67;0.00;;;;;;;;5050864;28;30017;-74
2024/01/26 10:16:33;;;;;;;;;1.33;0.00;;;;;;;;5048603;28;28580;-73
2024/01/26 10:18:58;;;;;;;;;0.00;0.00;;;;;;;;5050451;28;28454;-73
2024/01/26 10:21:24;;;;;;;;;0.33;0.33;;;;;;;;5045264;28;28549;-74
2024/01/26 10:23:49;;;;;;;;;2.75;0.25;;;;;;;;5046055;28;29862;-75
2024/01/26 10:26:15;;;;;;;;;1.67;0.67;;;;;;;;5048606;28;29411;-73
2024/01/26 10:28:40;;;;;;;;;0.00;0.00;;;;;;;;5051638;28;28486;-78
2024/01/26 10:31:06;;;;;;;;;0.00;0.00;;;;;;;;5052684;28;28619;-78
2024/01/26 10:33:34;;;;;;;;;1.00;0.00;;;;;;;;5048479;28;29651;-77
2024/01/26 10:36:00;;;;;;;;;0.25;0.00;;;;;;;;5053075;28;28379;-78
2024/01/26 10:38:28;;;;;;;;;2.00;1.00;;;;;;;;5080420;27;29794;-78
2024/01/26 10:40:57;;;;;;;;;2.00;0.00;;;;;;;;5045691;28;28834;-78
2024/01/26 10:43:22;;;;;;;;;0.00;0.00;;;;;;;;5047382;28;29483;-77
2024/01/26 10:45:48;;;;;;;;;0.67;0.67;;;;;;;;5047059;28;28449;-77
2024/01/26 10:48:15;;;;;;;;;1.67;1.00;;;;;;;;5047339;28;28870;-77
2024/01/26 10:50:41;;;;;;;;;2.00;1.00;;;;;;;;5040217;28;29574;-78
2024/01/26 10:53:07;;;;;;;;;4.33;1.00;;;;;;;;5045103;28;31468;-78
2024/01/26 10:55:32;;;;;;;;;1.25;1.25;;;;;;;;5045480;28;28406;-77
2024/01/26 10:57:59;;;;;;;;;3.00;0.33;;;;;;;;5045369;28;28382;-78
2024/01/26 11:00:24;;;;;;;;;1.50;1.00;;;;;;;;5047556;28;29606;-76
2024/01/26 11:02:50;;;;;;;;;1.00;0.00;;;;;;;;5045132;28;28406;-79
2024/01/26 11:05:17;;;;;;;;;1.00;1.00;;;;;;;;5045002;28;28483;-77
2024/01/26 11:07:42;;;;;;;;;2.00;0.75;;;;;;;;5035042;28;28901;-77
2024/01/26 11:10:15;;;;;;;;;6.67;1.33;;;;;;;;5046029;28;28576;-77
2024/01/26 11:12:40;;;;;;;;;1.33;1.00;;;;;;;;5036202;28;28843;-77
2024/01/26 11:15:06;;;;;;;;;3.67;2.00;;;;;;;;5046470;28;28692;-79
2024/01/26 11:17:41;;;;;;;;;3.00;1.33;;;;;;;;5045528;28;28625;-77
2024/01/26 11:20:10;;;;;;;;;1.00;0.67;;;;;;;;5048187;28;29678;-81
2024/01/26 11:22:35;;;;;;;;;0.75;0.75;;;;;;;;5049030;28;28537;-78
2024/01/26 11:25:00;;;;;;;;;4.00;3.00;;;;;;;;5049545;28;28769;-77
2024/01/26 11:27:26;;;;;;;;;3.67;1.33;;;;;;;;5039667;28;28439;-78
2024/01/26 11:29:51;;;;;;;;;2.00;2.00;;;;;;;;5046788;28;29310;-78
2024/01/26 11:32:18;;;;;;;;;1.67;1.67;;;;;;;;5047600;28;28627;-81
2024/01/26 11:34:44;;;;;;;;;4.50;1.25;;;;;;;;5043247;28;28745;-77
2024/01/26 11:37:15;;;;;;;;;2.67;1.33;;;;;;;;5037352;28;28813;-76
2024/01/26 11:39:41;;;;;;;;;3.25;2.50;;;;;;;;5043348;28;30142;-77
2024/01/26 11:42:11;;;;;;;;;0.60;0.60;;;;;;;;5048567;28;30384;-78
2024/01/26 11:44:49;;;;;;;;;1.75;0.00;;;;;;;;5042543;28;28888;-80
2024/01/26 11:47:26;;;;;;;;;2.00;1.00;;;;;;;;5048728;28;28632;-78
2024/01/26 11:49:53;;;;;;;;;3.50;0.75;;;;;;;;5042448;28;29014;-77
2024/01/26 11:52:22;;;;;;;;;3.25;1.00;;;;;;;;5043485;28;29761;-77
2024/01/26 11:54:47;;;;;;;;;4.50;2.00;;;;;;;;5042902;28;28627;-80
2024/01/26 11:57:13;;;;;;;;;4.00;1.33;;;;;;;;5046274;28;28936;-77
2024/01/26 11:59:39;;;;;;;;;6.67;2.00;;;;;;;;5046436;28;29183;-74
2024/01/26 12:02:04;;;;;;;;;3.00;1.75;;;;;;;;5042744;28;28623;-75
2024/01/26 12:04:29;;;;;;;;;2.67;1.00;;;;;;;;5046196;28;28478;-76
2024/01/26 12:06:55;;;;;;;;;1.00;0.33;;;;;;;;5042420;28;28684;-74
2024/01/26 12:09:20;;;;;;;;;2.33;1.67;;;;;;;;5048788;28;28543;-74
2024/01/26 12:11:46;;;;;;;;;1.00;1.00;;;;;;;;5049070;28;29397;-73
2024/01/26 12:14:11;;;;;;;;;1.33;1.33;;;;;;;;5046920;28;28576;-73
2024/01/26 12:16:38;;;;;;;;;3.67;1.00;;;;;;;;5048607;28;28361;-72
2024/01/26 12:19:06;;;;;;;;;2.00;0.25;;;;;;;;5047271;28;28678;-75
2024/01/26 12:21:31;;;;;;;;;0.67;0.67;;;;;;;;5042667;28;29133;-73
2024/01/26 12:23:57;;;;;;;;;4.00;1.00;;;;;;;;5047261;28;29068;-74
2024/01/26 12:26:22;;;;;;;;;0.33;0.33;;;;;;;;5041086;28;28841;-74
2024/01/26 12:28:47;;;;;;;;;1.00;0.67;;;;;;;;5043797;28;30479;-74
2024/01/26 12:31:15;;;;;;;;;2.00;0.33;;;;;;;;5043422;28;29860;-74
2024/01/26 12:33:40;;;;;;;;;0.67;0.00;;;;;;;;5045710;28;28659;-73
2024/01/26 12:36:11;;;;;;;;;1.00;1.00;;;;;;;;5047290;28;28704;-74
2024/01/26 12:38:37;;;;;;;;;1.33;0.33;;;;;;;;5047263;28;28919;-74
2024/01/26 12:41:02;;;;;;;;;2.00;0.67;;;;;;;;5046501;28;28636;-75
2024/01/26 12:43:27;;;;;;;;;0.00;0.00;;;;;;;;5047578;28;28660;-74
2024/01/26 12:45:52;;;;;;;;;0.00;0.00;;;;;;;;5047747;28;28872;-74
2024/01/26 12:48:19;;;;;;;;;0.67;0.00;;;;;;;;5066319;28;9355;-74
2024/01/26 12:50:46;;;;;;;;;0.00;0.00;;;;;;;;5059080;28;8841;-75
2024/01/26 12:53:11;;;;;;;;;1.25;0.00;;;;;;;;5067659;28;8812;-75
2024/01/26 12:55:36;;;;;;;;;3.67;0.00;;;;;;;;5067603;28;8831;-73
2024/01/26 12:58:02;;;;;;;;;1.00;0.33;;;;;;;;5069209;28;8847;-73
2024/01/26 13:00:28;;;;;;;;;3.75;0.00;;;;;;;;5067247;28;8756;-74
2024/01/26 13:02:53;;;;;;;;;0.00;0.00;;;;;;;;5066592;28;8832;-74
2024/01/26 13:05:20;;;;;;;;;2.67;0.00;;;;;;;;5064908;28;8871;-74
2024/01/26 13:07:46;;;;;;;;;0.00;0.00;;;;;;;;5065640;28;9968;-74
2024/01/26 13:10:11;;;;;;;;;0.00;0.00;;;;;;;;5067175;28;8814;-74
2024/01/26 13:12:37;;;;;;;;;1.00;0.00;;;;;;;;5067843;28;9051;-76
2024/01/26 13:15:02;;;;;;;;;0.67;0.67;;;;;;;;5068063;28;8975;-82
2024/01/26 13:17:28;;;;;;;;;0.33;0.00;;;;;;;;5068175;28;8848;-78
2024/01/26 13:19:53;;;;;;;;;3.00;0.67;;;;;;;;5069070;28;8885;-75
2024/01/26 13:22:18;;;;;;;;;0.00;0.00;;;;;;;;5067694;28;8828;-74
2024/01/26 13:24:44;;;;;;;;;0.00;0.00;;;;;;;;5067993;28;8862;-74
2024/01/26 13:27:11;;;;;;;;;0.25;0.25;;;;;;;;5066288;28;8800;-75
2024/01/26 13:29:36;;;;;;;;;0.00;0.00;;;;;;;;5067565;28;9772;-75
2024/01/26 13:32:02;;;;;;;;;1.00;1.00;;;;;;;;5067653;28;8806;-74
2024/01/26 13:34:27;;;;;;;;;0.67;0.00;;;;;;;;5066635;28;8832;-74
2024/01/26 13:36:52;;;;;;;;;2.00;0.00;;;;;;;;5065419;28;8867;-74
2024/01/26 13:39:17;;;;;;;;;2.33;1.00;;;;;;;;5055574;28;8887;-78
2024/01/26 13:41:43;;;;;;;;;0.67;0.00;;;;;;;;5066301;28;9790;-77
2024/01/26 13:44:08;;;;;;;;;1.67;1.00;;;;;;;;5066699;28;8916;-78
2024/01/26 13:46:36;;;;;;;;;0.33;0.00;;;;;;;;5067439;28;8840;-79
2024/01/26 13:49:02;;;;;;;;;1.25;0.75;;;;;;;;5069908;28;8846;-78
2024/01/26 13:51:27;;;;;;;;;0.00;0.00;;;;;;;;5067040;28;8832;-78
2024/01/26 13:53:52;;;;;;;;;0.33;0.33;;;;;;;;5066072;28;8879;-79
2024/01/26 13:56:18;;;;;;;;;3.00;1.67;;;;;;;;5072153;28;8862;-77
2024/01/26 13:58:44;;;;;;;;;0.00;0.00;;;;;;;;5067117;28;8840;-78
2024/01/26 14:01:10;;;;;;;;;1.50;0.00;;;;;;;;5066867;28;10327;-78
2024/01/26 14:03:35;;;;;;;;;0.33;0.00;;;;;;;;5069958;28;9207;-78
2024/01/26 14:06:00;;;;;;;;;1.33;0.00;;;;;;;;5073918;28;8836;-78
2024/01/26 14:08:26;;;;;;;;;3.00;1.00;;;;;;;;5079538;28;8822;-78
2024/01/26 14:10:52;;;;;;;;;0.75;0.75;;;;;;;;5075769;28;8820;-78
2024/01/26 14:13:17;;;;;;;;;0.33;0.00;;;;;;;;5066538;28;8818;-79
2024/01/26 14:15:43;;;;;;;;;1.33;1.33;;;;;;;;5068478;28;8886;-77
2024/01/26 14:18:08;;;;;;;;;1.00;0.00;;;;;;;;5067859;28;8857;-78
2024/01/26 14:20:37;;;;;;;;;0.00;0.00;;;;;;;;5066258;28;8938;-77
2024/01/26 14:23:03;;;;;;;;;1.25;0.00;;;;;;;;5060279;28;8859;-77
2024/01/26 14:25:28;;;;;;;;;2.50;0.00;;;;;;;;5065334;28;8820;-78
2024/01/26 14:27:54;;;;;;;;;0.00;0.00;;;;;;;;5066375;28;8816;-79
2024/01/26 14:30:20;;;;;;;;;0.00;0.00;;;;;;;;5067159;28;8816;-78
2024/01/26 14:32:48;;;;;;;;;2.00;0.00;;;;;;;;5065660;28;8838;-77
2024/01/26 14:35:14;;;;;;;;;0.25;0.00;;;;;;;;5067167;28;8808;-78
2024/01/26 14:37:40;;;;;;;;;0.00;0.00;;;;;;;;5065943;28;8998;-77